createdAt,value
2022-09-28T00:02:14.225Z,23.00
2022-09-28T00:04:42.360Z,23.00
2022-09-28T00:07:10.457Z,23.00
2022-09-28T00:09:38.482Z,22.90
2022-09-28T00:12:06.734Z,22.90
2022-09-28T00:14:34.932Z,22.90
2022-09-28T00:17:04.365Z,22.90
2022-09-28T00:19:32.574Z,22.90
2022-09-28T00:22:00.685Z,22.90
2022-09-28T00:24:30.467Z,22.90
2022-09-28T00:27:01.408Z,22.90
2022-09-28T00:29:31.595Z,22.90
2022-09-28T00:32:02.478Z,22.90
2022-09-28T00:34:34.670Z,22.90
2022-09-28T00:37:05.912Z,22.90
2022-09-28T00:39:35.806Z,22.90
2022-09-28T00:42:04.375Z,22.90
2022-09-28T00:44:44.576Z,22.80
2022-09-28T00:47:37.939Z,22.80
2022-09-28T00:50:12.469Z,22.80
2022-09-28T00:52:43.953Z,22.80
2022-09-28T00:55:16.185Z,22.80
2022-09-28T00:57:49.932Z,22.80
2022-09-28T01:00:18.218Z,22.80
2022-09-28T01:02:48.212Z,22.80
2022-09-28T01:05:19.356Z,22.80
2022-09-28T01:07:50.154Z,22.80
2022-09-28T01:10:18.531Z,22.80
2022-09-28T01:12:47.284Z,22.80
2022-09-28T01:15:16.492Z,22.80
2022-09-28T01:17:59.987Z,22.80
2022-09-28T01:21:06.605Z,22.80
2022-09-28T01:24:04.905Z,22.80
2022-09-28T01:27:00.883Z,22.80
2022-09-28T01:29:46.984Z,22.80
2022-09-28T01:32:26.493Z,22.70
2022-09-28T01:34:59.684Z,22.70
2022-09-28T01:37:33.274Z,22.70
2022-09-28T01:40:05.907Z,22.70
2022-09-28T01:42:39.928Z,22.70
2022-09-28T01:45:13.019Z,22.70
2022-09-28T01:47:42.164Z,22.70
2022-09-28T01:50:14.379Z,22.70
2022-09-28T01:52:48.254Z,22.70
2022-09-28T01:55:22.253Z,22.70
2022-09-28T01:57:56.563Z,22.70
2022-09-28T02:00:27.776Z,22.70
2022-09-28T02:03:03.899Z,22.70
2022-09-28T02:05:43.097Z,22.70
2022-09-28T02:08:17.293Z,22.70
2022-09-28T02:10:49.517Z,22.70
2022-09-28T02:13:23.529Z,22.70
2022-09-28T02:15:54.360Z,22.70
2022-09-28T02:18:22.591Z,22.70
2022-09-28T02:21:00.358Z,22.70
2022-09-28T02:23:34.658Z,22.70
2022-09-28T02:26:06.143Z,22.70
2022-09-28T02:28:35.835Z,22.70
2022-09-28T02:31:04.425Z,22.70
2022-09-28T02:33:37.347Z,22.70
2022-09-28T02:36:06.096Z,22.70
2022-09-28T02:38:39.558Z,22.60
2022-09-28T02:41:15.698Z,22.60
2022-09-28T02:43:58.392Z,22.60
2022-09-28T02:46:33.200Z,22.60
2022-09-28T02:49:22.604Z,22.60
2022-09-28T02:52:14.375Z,22.60
2022-09-28T02:55:11.272Z,22.60
2022-09-28T02:57:50.474Z,22.60
2022-09-28T03:00:22.910Z,22.60
2022-09-28T03:03:02.350Z,22.60
2022-09-28T03:05:45.031Z,22.60
2022-09-28T03:08:21.298Z,22.60
2022-09-28T03:10:53.616Z,22.60
2022-09-28T03:13:22.195Z,22.60
2022-09-28T03:15:51.698Z,22.60
2022-09-28T03:18:19.987Z,22.60
2022-09-28T03:20:49.684Z,22.60
2022-09-28T03:23:24.674Z,22.60
2022-09-28T03:25:53.695Z,22.60
2022-09-28T03:28:22.672Z,22.60
2022-09-28T03:30:52.366Z,22.60
2022-09-28T03:33:20.889Z,22.60
2022-09-28T03:35:49.695Z,22.60
2022-09-28T03:38:19.245Z,22.60
2022-09-28T03:40:54.335Z,22.60
2022-09-28T03:43:22.724Z,22.60
2022-09-28T03:45:57.117Z,22.60
2022-09-28T03:48:31.899Z,22.60
2022-09-28T03:51:02.634Z,22.60
2022-09-28T03:53:30.856Z,22.60
2022-09-28T03:56:04.634Z,22.60
2022-09-28T03:58:33.724Z,22.50
2022-09-28T04:01:09.246Z,22.50
2022-09-28T04:03:40.935Z,22.50
2022-09-28T04:06:09.196Z,22.50
2022-09-28T04:08:37.347Z,22.50
2022-09-28T04:11:05.480Z,22.50
2022-09-28T04:13:33.801Z,22.50
2022-09-28T04:16:03.808Z,22.50
2022-09-28T04:18:36.271Z,22.50
2022-09-28T04:21:22.894Z,22.50
2022-09-28T04:23:58.106Z,22.50
2022-09-28T04:26:28.419Z,22.50
2022-09-28T04:29:15.101Z,22.50
2022-09-28T04:31:47.626Z,22.50
2022-09-28T04:34:19.469Z,22.50
2022-09-28T04:36:48.738Z,22.50
2022-09-28T04:39:19.139Z,22.50
2022-09-28T04:41:50.519Z,22.50
2022-09-28T04:44:18.722Z,22.50
2022-09-28T04:46:48.588Z,22.50
2022-09-28T04:49:41.148Z,22.50
2022-09-28T04:52:17.864Z,22.50
2022-09-28T04:54:48.921Z,22.40
2022-09-28T04:57:17.862Z,22.50
2022-09-28T04:59:46.141Z,22.50
2022-09-28T05:02:15.172Z,22.40
2022-09-28T05:05:03.334Z,22.40
2022-09-28T05:07:59.386Z,22.40
2022-09-28T05:10:27.523Z,22.40
2022-09-28T05:12:55.619Z,22.40
2022-09-28T05:15:23.708Z,22.40
2022-09-28T05:17:54.143Z,22.40
2022-09-28T05:20:31.920Z,22.30
2022-09-28T05:23:00.090Z,22.30
2022-09-28T05:25:28.452Z,22.30
2022-09-28T05:28:06.809Z,22.30
2022-09-28T05:30:48.292Z,22.30
2022-09-28T05:33:32.192Z,22.20
2022-09-28T05:36:12.515Z,22.20
2022-09-28T05:38:40.761Z,22.20
2022-09-28T05:41:09.007Z,22.20
2022-09-28T05:43:38.408Z,22.20
2022-09-28T05:46:08.167Z,22.20
2022-09-28T05:48:39.531Z,22.30
2022-09-28T05:51:10.155Z,22.20
2022-09-28T05:53:39.706Z,22.20
2022-09-28T05:56:07.995Z,22.30
2022-09-28T05:58:37.966Z,22.30
2022-09-28T06:01:06.465Z,22.30
2022-09-28T06:03:34.699Z,22.30
2022-09-28T06:06:03.431Z,22.30
2022-09-28T06:08:33.511Z,22.30
2022-09-28T06:11:32.788Z,22.30
2022-09-28T06:14:06.094Z,22.30
2022-09-28T06:16:34.969Z,22.30
2022-09-28T06:19:03.253Z,22.30
2022-09-28T06:22:00.631Z,22.40
2022-09-28T06:24:30.091Z,22.40
2022-09-28T06:26:59.884Z,22.40
2022-09-28T06:29:29.286Z,22.40
2022-09-28T06:31:58.369Z,22.40
2022-09-28T06:34:26.766Z,22.40
2022-09-28T06:36:54.941Z,22.40
2022-09-28T06:39:23.128Z,22.40
2022-09-28T06:41:52.613Z,22.40
2022-09-28T06:44:25.124Z,22.40
2022-09-28T06:47:23.735Z,22.40
2022-09-28T06:50:04.716Z,22.40
2022-09-28T06:52:52.711Z,22.40
2022-09-28T06:55:40.811Z,22.40
2022-09-28T06:58:12.433Z,22.40
2022-09-28T07:00:42.569Z,22.40
2022-09-28T07:03:13.727Z,22.40
2022-09-28T07:06:02.130Z,22.40
2022-09-28T07:08:58.169Z,22.50
2022-09-28T07:11:55.866Z,22.50
2022-09-28T07:14:47.427Z,22.50
2022-09-28T07:17:18.391Z,22.50
2022-09-28T07:19:46.607Z,22.50
2022-09-28T07:22:18.712Z,22.50
2022-09-28T07:24:49.649Z,22.50
2022-09-28T07:27:37.211Z,22.50
2022-09-28T07:30:26.681Z,22.50
2022-09-28T07:33:12.567Z,22.50
2022-09-28T07:35:53.279Z,22.50
2022-09-28T07:38:23.162Z,22.50
2022-09-28T07:41:08.739Z,22.50
2022-09-28T07:43:39.676Z,22.50
2022-09-28T07:46:12.022Z,22.60
2022-09-28T07:48:45.963Z,22.60
2022-09-28T07:51:25.764Z,22.60
2022-09-28T07:54:12.303Z,22.70
2022-09-28T07:56:58.881Z,22.70
2022-09-28T07:59:47.522Z,22.70
2022-09-28T08:02:35.468Z,22.70
2022-09-28T08:05:05.539Z,22.80
2022-09-28T08:07:34.501Z,22.80
2022-09-28T08:10:08.574Z,22.80
2022-09-28T08:13:04.786Z,22.80
2022-09-28T08:15:53.933Z,22.80
2022-09-28T08:18:40.041Z,22.80
2022-09-28T08:21:29.270Z,22.80
2022-09-28T08:23:57.764Z,22.80
2022-09-28T08:26:26.064Z,22.80
2022-09-28T08:28:54.261Z,22.90
2022-09-28T08:31:51.292Z,22.90
2022-09-28T08:34:45.252Z,22.90
2022-09-28T08:37:23.921Z,22.90
2022-09-28T08:40:18.010Z,22.90
2022-09-28T08:43:32.380Z,23.00
2022-09-28T08:46:14.428Z,23.00
2022-09-28T08:49:25.698Z,23.10
2022-09-28T08:52:18.736Z,23.10
2022-09-28T08:55:04.172Z,23.10
2022-09-28T08:57:44.341Z,23.10
2022-09-28T09:00:18.918Z,23.10
2022-09-28T09:02:47.741Z,23.10
2022-09-28T09:05:24.687Z,23.10
2022-09-28T09:08:17.626Z,23.10
2022-09-28T09:10:54.452Z,23.10
2022-09-28T09:13:50.059Z,23.10
2022-09-28T09:16:31.821Z,23.10
2022-09-28T09:19:15.564Z,23.10
2022-09-28T09:22:01.744Z,23.10
2022-09-28T09:24:39.357Z,23.10
2022-09-28T09:27:19.695Z,23.10
2022-09-28T09:30:03.689Z,23.10
2022-09-28T09:32:42.440Z,23.20
2022-09-28T09:35:40.081Z,23.20
2022-09-28T09:38:40.823Z,23.20
2022-09-28T09:41:45.125Z,23.20
2022-09-28T09:45:03.165Z,23.10
2022-09-28T09:48:02.391Z,23.20
2022-09-28T09:50:39.965Z,23.20
2022-09-28T09:53:17.470Z,23.20
2022-09-28T09:55:47.510Z,23.20
2022-09-28T09:58:39.640Z,23.20
2022-09-28T10:01:21.040Z,23.20
2022-09-28T10:04:14.074Z,23.20
2022-09-28T10:06:44.768Z,23.20
2022-09-28T10:09:20.195Z,23.20
2022-09-28T10:11:50.235Z,23.20
2022-09-28T10:14:21.516Z,23.30
2022-09-28T10:17:14.633Z,23.30
2022-09-28T10:20:14.921Z,23.30
2022-09-28T10:23:02.164Z,23.30
2022-09-28T10:25:34.774Z,23.20
2022-09-28T10:28:06.334Z,23.30
2022-09-28T10:30:44.545Z,23.30
2022-09-28T10:33:30.544Z,23.30
2022-09-28T10:36:00.150Z,23.20
2022-09-28T10:38:30.204Z,23.20
2022-09-28T10:41:13.473Z,23.20
2022-09-28T10:44:10.932Z,23.20
2022-09-28T10:47:02.259Z,23.10
2022-09-28T10:49:46.488Z,23.10
2022-09-28T10:52:41.743Z,23.10
2022-09-28T10:55:32.216Z,23.10
2022-09-28T10:58:01.548Z,23.00
2022-09-28T11:00:41.413Z,23.10
2022-09-28T11:03:22.241Z,23.00
2022-09-28T11:06:00.536Z,23.10
2022-09-28T11:08:32.209Z,23.00
2022-09-28T11:11:09.403Z,23.10
2022-09-28T11:13:43.785Z,23.10
2022-09-28T11:16:24.652Z,23.10
2022-09-28T11:18:53.264Z,23.10
2022-09-28T11:21:26.982Z,23.10
2022-09-28T11:24:07.503Z,23.10
2022-09-28T11:26:57.472Z,23.10
2022-09-28T11:29:38.133Z,23.10
2022-09-28T11:32:30.549Z,23.10
2022-09-28T11:35:20.925Z,23.10
2022-09-28T11:38:12.515Z,23.10
2022-09-28T11:41:11.914Z,23.00
2022-09-28T11:44:19.964Z,23.00
2022-09-28T11:47:14.849Z,23.00
2022-09-28T11:49:50.273Z,23.00
2022-09-28T11:52:23.803Z,23.00
2022-09-28T11:54:58.237Z,23.00
2022-09-28T11:57:29.681Z,23.00
2022-09-28T12:00:00.882Z,23.00
2022-09-28T12:02:35.830Z,23.10
2022-09-28T12:05:20.749Z,23.10
2022-09-28T12:07:55.132Z,23.10
2022-09-28T12:11:04.209Z,23.20
2022-09-28T12:14:07.862Z,23.20
2022-09-28T12:19:35.036Z,23.30
2022-09-28T12:22:11.174Z,23.30
2022-09-28T12:24:45.107Z,23.30
2022-09-28T12:27:19.023Z,23.30
2022-09-28T12:29:52.823Z,23.30
2022-09-28T12:32:29.632Z,23.30
2022-09-28T12:34:58.283Z,23.30
2022-09-28T12:37:51.463Z,23.30
2022-09-28T12:40:40.845Z,23.30
2022-09-28T12:43:34.123Z,23.30
2022-09-28T12:46:32.132Z,23.30
2022-09-28T12:52:30.299Z,23.30
2022-09-28T12:55:20.557Z,23.40
2022-09-28T12:58:00.164Z,23.40
2022-09-28T13:00:37.718Z,23.40
2022-09-28T13:03:31.733Z,23.40
2022-09-28T13:06:29.725Z,23.40
2022-09-28T13:09:14.293Z,23.40
2022-09-28T13:11:49.526Z,23.40
2022-09-28T13:14:53.137Z,23.40
2022-09-28T13:17:29.980Z,23.40
2022-09-28T13:20:00.601Z,23.40
2022-09-28T13:22:38.979Z,23.40
2022-09-28T13:25:15.634Z,23.40
2022-09-28T13:27:51.373Z,23.40
2022-09-28T13:30:19.859Z,23.40
2022-09-28T13:32:50.959Z,23.40
2022-09-28T13:35:20.607Z,23.40
2022-09-28T13:37:49.084Z,23.40
2022-09-28T13:40:17.458Z,23.40
2022-09-28T13:43:06.707Z,23.40
2022-09-28T13:45:58.840Z,23.40
2022-09-28T13:48:42.512Z,23.40
2022-09-28T13:51:40.978Z,23.40
2022-09-28T13:54:25.534Z,23.30
2022-09-28T13:57:01.171Z,23.30
2022-09-28T13:59:31.606Z,23.30
2022-09-28T14:02:07.074Z,23.30
2022-09-28T14:04:58.355Z,23.30
2022-09-28T14:10:20.454Z,23.30
2022-09-28T14:12:50.287Z,23.30
2022-09-28T14:15:41.815Z,23.30
2022-09-28T14:18:24.875Z,23.30
2022-09-28T14:21:12.889Z,23.30
2022-09-28T14:23:59.023Z,23.30
2022-09-28T14:27:00.037Z,23.30
2022-09-28T14:29:29.457Z,23.30
2022-09-28T14:31:59.282Z,23.30
2022-09-28T14:34:34.149Z,23.30
2022-09-28T14:37:35.139Z,23.30
2022-09-28T14:40:35.879Z,23.30
2022-09-28T14:43:24.734Z,23.30
2022-09-28T14:46:14.529Z,23.30
2022-09-28T14:48:49.019Z,23.30
2022-09-28T14:52:01.048Z,23.30
2022-09-28T14:54:42.964Z,23.30
2022-09-28T14:57:19.195Z,23.30
2022-09-28T14:59:48.113Z,23.30
2022-09-28T15:02:26.736Z,23.30
2022-09-28T15:04:59.865Z,23.30
2022-09-28T15:07:32.922Z,23.30
2022-09-28T15:10:03.287Z,23.30
2022-09-28T15:12:32.342Z,23.20
2022-09-28T15:15:02.521Z,23.20
2022-09-28T15:17:38.542Z,23.20
2022-09-28T15:20:25.251Z,23.20
2022-09-28T15:22:57.540Z,23.20
2022-09-28T15:25:28.684Z,23.20
2022-09-28T15:27:59.031Z,23.30
2022-09-28T15:30:29.405Z,23.30
2022-09-28T15:33:18.946Z,23.30
2022-09-28T15:35:49.980Z,23.20
2022-09-28T15:38:18.576Z,23.20
2022-09-28T15:40:48.517Z,23.20
2022-09-28T15:43:27.135Z,23.20
2022-09-28T15:46:05.832Z,23.20
2022-09-28T15:48:42.070Z,23.20
2022-09-28T15:51:11.881Z,23.20
2022-09-28T15:53:46.789Z,23.30
2022-09-28T15:56:16.322Z,23.20
2022-09-28T15:58:44.742Z,23.30
2022-09-28T16:01:29.341Z,23.30
2022-09-28T16:03:57.566Z,23.20
2022-09-28T16:06:25.700Z,23.20
2022-09-28T16:08:53.971Z,23.20
2022-09-28T16:11:27.386Z,23.30
2022-09-28T16:14:01.584Z,23.30
2022-09-28T16:16:31.942Z,23.30
2022-09-28T16:19:02.049Z,23.30
2022-09-28T16:21:44.204Z,23.30
2022-09-28T16:24:22.181Z,23.30
2022-09-28T16:26:59.164Z,23.30
2022-09-28T16:29:33.603Z,23.20
2022-09-28T16:32:41.448Z,23.20
2022-09-28T16:35:28.160Z,23.20
2022-09-28T16:38:00.553Z,23.20
2022-09-28T16:40:29.653Z,23.10
2022-09-28T16:43:03.328Z,23.10
2022-09-28T16:45:31.532Z,23.10
2022-09-28T16:48:01.572Z,23.10
2022-09-28T16:50:29.893Z,23.10
2022-09-28T16:53:20.170Z,23.00
2022-09-28T16:55:50.301Z,23.00
2022-09-28T16:58:19.775Z,23.00
2022-09-28T17:00:47.920Z,23.00
2022-09-28T17:03:18.490Z,22.90
2022-09-28T17:05:48.776Z,22.90
2022-09-28T17:08:19.166Z,22.90
2022-09-28T17:11:14.486Z,22.90
2022-09-28T17:13:43.667Z,22.90
2022-09-28T17:16:14.313Z,22.90
2022-09-28T17:18:43.108Z,22.80
2022-09-28T17:21:15.723Z,22.80
2022-09-28T17:23:44.069Z,22.80
2022-09-28T17:26:19.503Z,22.80
2022-09-28T17:28:48.953Z,22.80
2022-09-28T17:31:18.018Z,22.80
2022-09-28T17:33:47.097Z,22.80
2022-09-28T17:36:17.532Z,22.80
2022-09-28T17:38:47.654Z,22.80
2022-09-28T17:41:20.605Z,22.80
2022-09-28T17:43:50.682Z,22.70
2022-09-28T17:46:27.433Z,22.70
2022-09-28T17:48:57.542Z,22.70
2022-09-28T17:51:25.866Z,22.70
2022-09-28T17:53:54.406Z,22.70
2022-09-28T17:56:22.619Z,22.70
2022-09-28T17:58:52.572Z,22.70
2022-09-28T18:01:20.862Z,22.70
2022-09-28T18:03:49.009Z,22.70
2022-09-28T18:06:19.723Z,22.70
2022-09-28T18:08:47.931Z,22.70
2022-09-28T18:11:17.302Z,22.70
2022-09-28T18:13:46.054Z,22.70
2022-09-28T18:16:16.304Z,22.70
2022-09-28T18:18:44.437Z,22.70
2022-09-28T18:21:12.591Z,22.70
2022-09-28T18:23:40.894Z,22.70
2022-09-28T18:26:12.443Z,22.70
2022-09-28T18:28:41.110Z,22.70
2022-09-28T18:31:10.030Z,22.70
2022-09-28T18:33:39.806Z,22.70
2022-09-28T18:36:09.151Z,22.60
2022-09-28T18:38:37.494Z,22.60
2022-09-28T18:41:10.135Z,22.60
2022-09-28T18:43:38.312Z,22.60
2022-09-28T18:46:10.778Z,22.60
2022-09-28T18:48:41.614Z,22.60
2022-09-28T18:51:10.424Z,22.60
2022-09-28T18:53:38.700Z,22.60
2022-09-28T18:56:08.228Z,22.60
2022-09-28T18:58:36.849Z,22.60
2022-09-28T19:01:28.841Z,22.60
2022-09-28T19:04:00.188Z,22.60
2022-09-28T19:06:29.119Z,22.60
2022-09-28T19:08:58.267Z,22.60
2022-09-28T19:11:26.963Z,22.60
2022-09-28T19:13:56.307Z,22.60
2022-09-28T19:16:26.729Z,22.60
2022-09-28T19:18:56.442Z,22.60
2022-09-28T19:21:27.066Z,22.60
2022-09-28T19:23:55.659Z,22.60
2022-09-28T19:26:26.129Z,22.60
2022-09-28T19:28:54.767Z,22.60
2022-09-28T19:31:23.293Z,22.60
2022-09-28T19:33:51.657Z,22.60
2022-09-28T19:36:21.851Z,22.60
2022-09-28T19:38:52.510Z,22.60
2022-09-28T19:41:39.311Z,22.60
2022-09-28T19:44:13.474Z,22.60
2022-09-28T19:46:41.905Z,22.60
2022-09-28T19:49:13.051Z,22.60
2022-09-28T19:52:01.728Z,22.60
2022-09-28T19:54:36.578Z,22.60
2022-09-28T19:57:08.005Z,22.60
2022-09-28T19:59:37.014Z,22.60
2022-09-28T20:02:05.972Z,22.60
2022-09-28T20:04:34.143Z,22.50
2022-09-28T20:07:02.370Z,22.60
2022-09-28T20:09:32.425Z,22.60
2022-09-28T20:12:00.589Z,22.60
2022-09-28T20:14:33.025Z,22.60
2022-09-28T20:17:04.992Z,22.60
2022-09-28T20:19:33.601Z,22.60
2022-09-28T20:22:03.023Z,22.50
2022-09-28T20:24:33.182Z,22.50
2022-09-28T20:27:02.487Z,22.50
2022-09-28T20:29:33.175Z,22.50
2022-09-28T20:32:01.897Z,22.50
2022-09-28T20:34:30.051Z,22.50
2022-09-28T20:36:58.165Z,22.50
2022-09-28T20:39:26.573Z,22.50
2022-09-28T20:41:56.135Z,22.50
2022-09-28T20:44:24.266Z,22.50
2022-09-28T20:46:52.819Z,22.50
2022-09-28T20:49:20.928Z,22.50
2022-09-28T20:51:49.048Z,22.60
2022-09-28T20:54:17.189Z,22.50
2022-09-28T20:56:48.000Z,22.50
2022-09-28T20:59:17.526Z,22.50
2022-09-28T21:01:45.712Z,22.50
2022-09-28T21:04:14.162Z,22.50
2022-09-28T21:06:43.156Z,22.50
2022-09-28T21:09:12.382Z,22.50
2022-09-28T21:11:41.627Z,22.50
2022-09-28T21:14:10.874Z,22.50
2022-09-28T21:16:40.455Z,22.50
2022-09-28T21:19:08.566Z,22.50
2022-09-28T21:21:36.730Z,22.50
2022-09-28T21:24:05.156Z,22.50
2022-09-28T21:26:35.052Z,22.50
2022-09-28T21:29:04.860Z,22.50
2022-09-28T21:31:39.263Z,22.50
2022-09-28T21:34:12.148Z,22.50
2022-09-28T21:36:40.478Z,22.50
2022-09-28T21:39:10.480Z,22.50
2022-09-28T21:41:38.922Z,22.50
2022-09-28T21:44:07.726Z,22.50
2022-09-28T21:46:36.508Z,22.50
2022-09-28T21:49:06.258Z,22.50
2022-09-28T21:51:36.451Z,22.50
2022-09-28T21:54:04.922Z,22.50
2022-09-28T21:56:33.027Z,22.50
2022-09-28T21:59:02.364Z,22.50
2022-09-28T22:01:31.303Z,22.50
2022-09-28T22:03:59.444Z,22.50
2022-09-28T22:06:29.028Z,22.50
2022-09-28T22:08:58.935Z,22.50
2022-09-28T22:11:29.042Z,22.50
2022-09-28T22:13:58.929Z,22.50
2022-09-28T22:16:28.838Z,22.50
2022-09-28T22:18:56.927Z,22.50
2022-09-28T22:21:26.426Z,22.50
2022-09-28T22:23:54.981Z,22.40
2022-09-28T22:26:26.335Z,22.40
2022-09-28T22:28:56.390Z,22.40
2022-09-28T22:31:26.711Z,22.40
2022-09-28T22:33:57.487Z,22.30
2022-09-28T22:36:25.987Z,22.30
2022-09-28T22:38:55.582Z,22.30
2022-09-28T22:41:25.346Z,22.30
2022-09-28T22:43:54.575Z,22.30
2022-09-28T22:46:25.067Z,22.30
2022-09-28T22:48:54.889Z,22.30
2022-09-28T22:51:24.621Z,22.30
2022-09-28T22:53:52.825Z,22.30
2022-09-28T22:56:20.928Z,22.30
2022-09-28T22:58:50.406Z,22.20
2022-09-28T23:01:21.083Z,22.30
2022-09-28T23:03:50.700Z,22.30
2022-09-28T23:06:21.025Z,22.30
2022-09-28T23:08:50.039Z,22.20
2022-09-28T23:11:18.763Z,22.20
2022-09-28T23:13:51.521Z,22.20
2022-09-28T23:16:20.175Z,22.20
2022-09-28T23:18:49.146Z,22.20
2022-09-28T23:21:18.691Z,22.20
2022-09-28T23:23:47.745Z,22.20
2022-09-28T23:26:17.745Z,22.30
2022-09-28T23:28:46.402Z,22.20
2022-09-28T23:31:18.130Z,22.20
2022-09-28T23:33:46.729Z,22.20
2022-09-28T23:36:15.468Z,22.20
2022-09-28T23:38:43.682Z,22.20
2022-09-28T23:41:11.995Z,22.20
2022-09-28T23:43:40.074Z,22.20
2022-09-28T23:46:08.416Z,22.20
2022-09-28T23:48:37.908Z,22.20
2022-09-28T23:51:06.650Z,22.20
2022-09-28T23:53:35.020Z,22.20
2022-09-28T23:56:03.371Z,22.20
2022-09-28T23:58:31.461Z,22.20
